KSSI

McKinnon St Simons Island Airport

Brunswick, Georgia, USA
METAR KSSI 181453Z AUTO 33008KT 10SM CLR 00/M12 A3044 RMK AO2 SLP310 T00001117 51019
Observed Flight Rules
Jan-18 @ 14:53 UTC (47 minutes ago) Visual Flight Rules
Wind Visibility Clouds
330° at 8 knots 10 miles
  • Clear skies
Temperatures Readings
Current 0°C / 32°F
Dewpoint -12°C / 10°F
Humidity 40%
Altimeter 30.44" Hg
Pressure 1031 hPa
Elevation 6
METAR KSSI 181453Z AUTO 33008KT 10SM CLR 00/M12 A3044 RMK AO2 SLP310 T00001117 51019
Observed Flight Rules
Jan-18 @ 14:53 UTC
(47 minutes ago)
VFR
Wind Visibility
330° at 8 knots 10 miles
Clouds
  • Clear skies
Temperature Dewpoint
0°C / 32°F -12°C / 10°F
Humidity Altimeter Pressure
40% 30.44" Hg 1031 hPa